createdAt,value
2022-10-31T00:00:48.867Z,2.90
2022-10-31T00:03:17.446Z,2.80
2022-10-31T00:05:47.291Z,2.67
2022-10-31T00:08:15.301Z,2.73
2022-10-31T00:10:44.133Z,2.90
2022-10-31T00:13:12.937Z,2.67
2022-10-31T00:15:42.820Z,2.73
2022-10-31T00:18:11.747Z,2.57
2022-10-31T00:20:40.172Z,3.00
2022-10-31T00:23:08.814Z,2.60
2022-10-31T00:25:38.264Z,3.07
2022-10-31T00:28:07.178Z,2.97
2022-10-31T00:30:35.684Z,2.83
2022-10-31T00:33:06.749Z,3.47
2022-10-31T00:35:34.914Z,3.13
2022-10-31T00:38:02.778Z,3.40
2022-10-31T00:40:30.666Z,2.80
2022-10-31T00:42:58.914Z,2.50
2022-10-31T00:45:27.058Z,3.00
2022-10-31T00:47:54.940Z,2.90
2022-10-31T00:50:24.129Z,2.93
2022-10-31T00:52:51.991Z,2.40
2022-10-31T00:55:20.073Z,2.70
2022-10-31T00:57:48.712Z,2.60
2022-10-31T01:00:17.405Z,2.93
2022-10-31T01:02:45.317Z,3.17
2022-10-31T01:05:13.390Z,2.70
2022-10-31T01:07:43.295Z,2.70
2022-10-31T01:10:12.154Z,2.63
2022-10-31T01:12:40.109Z,2.73
2022-10-31T01:15:09.498Z,2.60
2022-10-31T01:17:37.401Z,2.87
2022-10-31T01:20:06.264Z,2.30
2022-10-31T01:22:34.414Z,2.03
2022-10-31T01:25:03.683Z,2.57
2022-10-31T01:27:32.643Z,2.87
2022-10-31T01:30:00.502Z,2.60
2022-10-31T01:32:29.777Z,3.00
2022-10-31T01:34:57.609Z,2.57
2022-10-31T01:37:25.471Z,2.90
2022-10-31T01:39:53.318Z,3.00
2022-10-31T01:42:24.729Z,2.67
2022-10-31T01:44:59.976Z,2.90
2022-10-31T01:47:39.879Z,2.40
2022-10-31T01:50:15.184Z,2.47
2022-10-31T01:52:46.515Z,3.00
2022-10-31T01:55:17.670Z,2.97
2022-10-31T01:57:50.602Z,3.10
2022-10-31T02:00:19.161Z,3.33
2022-10-31T02:02:48.507Z,3.47
2022-10-31T02:05:19.321Z,3.40
2022-10-31T02:07:53.762Z,3.37
2022-10-31T02:10:23.240Z,3.47
2022-10-31T02:12:53.796Z,3.93
2022-10-31T02:15:21.669Z,3.97
2022-10-31T02:17:49.673Z,3.60
2022-10-31T02:20:20.862Z,4.57
2022-10-31T02:23:20.147Z,4.17
2022-10-31T02:26:23.714Z,3.70
2022-10-31T02:29:12.515Z,3.30
2022-10-31T02:31:48.050Z,3.77
2022-10-31T02:34:21.699Z,3.17
2022-10-31T02:36:56.803Z,3.60
2022-10-31T02:39:28.365Z,2.97
2022-10-31T02:42:06.866Z,3.93
2022-10-31T02:44:40.450Z,3.70
2022-10-31T02:47:14.067Z,3.87
2022-10-31T02:49:47.745Z,3.83
2022-10-31T02:52:19.230Z,4.33
2022-10-31T02:54:48.511Z,4.10
2022-10-31T02:57:20.463Z,3.93
2022-10-31T02:59:50.799Z,4.23
2022-10-31T03:02:31.447Z,3.57
2022-10-31T03:05:21.541Z,3.50
2022-10-31T03:07:58.491Z,3.83
2022-10-31T03:10:36.868Z,3.47
2022-10-31T03:13:11.275Z,3.30
2022-10-31T03:15:41.609Z,3.70
2022-10-31T03:18:15.246Z,3.13
2022-10-31T03:20:47.537Z,3.10
2022-10-31T03:23:19.702Z,2.93
2022-10-31T03:25:50.305Z,2.67
2022-10-31T03:28:21.129Z,2.90
2022-10-31T03:30:50.978Z,2.80
2022-10-31T03:33:26.530Z,2.90
2022-10-31T03:35:56.747Z,3.20
2022-10-31T03:38:24.891Z,2.90
2022-10-31T03:40:55.116Z,2.53
2022-10-31T03:43:27.932Z,2.90
2022-10-31T03:45:56.716Z,2.70
2022-10-31T03:48:26.944Z,2.93
2022-10-31T03:51:09.686Z,2.57
2022-10-31T03:53:43.258Z,3.10
2022-10-31T03:56:14.926Z,2.67
2022-10-31T03:58:49.721Z,2.70
2022-10-31T04:01:20.259Z,2.67
2022-10-31T04:03:51.173Z,2.07
2022-10-31T04:06:21.809Z,2.60
2022-10-31T04:08:53.075Z,2.50
2022-10-31T04:11:25.078Z,2.90
2022-10-31T04:13:54.407Z,2.90
2022-10-31T04:16:23.847Z,2.50
2022-10-31T04:18:53.069Z,2.67
2022-10-31T04:21:20.874Z,2.73
2022-10-31T04:23:48.739Z,2.50
2022-10-31T04:26:16.582Z,2.70
2022-10-31T04:28:44.418Z,2.30
2022-10-31T04:31:13.565Z,2.50
2022-10-31T04:33:41.355Z,2.10
2022-10-31T04:36:11.093Z,2.20
2022-10-31T04:38:40.033Z,2.33
2022-10-31T04:41:07.864Z,2.87
2022-10-31T04:43:35.769Z,2.40
2022-10-31T04:46:03.763Z,2.40
2022-10-31T04:48:31.796Z,2.50
2022-10-31T04:51:03.343Z,2.57
2022-10-31T04:53:32.508Z,2.30
2022-10-31T04:56:01.541Z,2.47
2022-10-31T04:58:29.872Z,2.37
2022-10-31T05:00:58.475Z,2.60
2022-10-31T05:03:26.290Z,2.70
2022-10-31T05:05:54.110Z,2.67
2022-10-31T05:08:21.993Z,2.43
2022-10-31T05:10:51.242Z,2.47
2022-10-31T05:13:19.076Z,2.80
2022-10-31T05:15:46.939Z,2.87
2022-10-31T05:18:14.871Z,3.43
2022-10-31T05:20:42.731Z,20.67
2022-10-31T05:23:10.588Z,9.10
2022-10-31T05:25:38.417Z,4.57
2022-10-31T05:28:07.675Z,2.53
2022-10-31T05:30:36.163Z,2.60
2022-10-31T05:33:04.179Z,2.33
2022-10-31T05:35:34.110Z,2.87
2022-10-31T05:38:01.985Z,2.73
2022-10-31T05:40:30.317Z,2.73
2022-10-31T05:43:00.455Z,2.70
2022-10-31T05:45:29.937Z,2.40
2022-10-31T05:47:59.832Z,2.47
2022-10-31T05:50:29.871Z,2.73
2022-10-31T05:52:59.281Z,3.70
2022-10-31T05:55:27.739Z,8.60
2022-10-31T05:57:55.871Z,8.27
2022-10-31T06:00:24.046Z,3.80
2022-10-31T06:03:00.111Z,3.67
2022-10-31T06:05:28.179Z,3.17
2022-10-31T06:07:56.022Z,2.20
2022-10-31T06:10:24.407Z,2.77
2022-10-31T06:12:52.309Z,3.10
2022-10-31T06:15:24.104Z,2.60
2022-10-31T06:18:02.522Z,3.00
2022-10-31T06:20:30.712Z,2.50
2022-10-31T06:22:58.822Z,2.50
2022-10-31T06:25:27.221Z,4.03
2022-10-31T06:27:55.126Z,3.70
2022-10-31T06:30:23.143Z,2.80
2022-10-31T06:32:51.448Z,2.70
2022-10-31T06:35:20.861Z,2.93
2022-10-31T06:37:53.784Z,3.03
2022-10-31T06:40:22.256Z,2.80
2022-10-31T06:42:57.401Z,3.23
2022-10-31T06:45:26.383Z,28.80
2022-10-31T06:48:15.920Z,26.90
2022-10-31T06:50:43.761Z,6.60
2022-10-31T06:53:11.714Z,4.60
2022-10-31T06:55:39.600Z,3.70
2022-10-31T06:58:07.736Z,3.93
2022-10-31T07:00:35.890Z,3.80
2022-10-31T07:03:05.549Z,3.87
2022-10-31T07:05:33.867Z,4.07
2022-10-31T07:08:05.135Z,4.43
2022-10-31T07:10:39.193Z,3.67
2022-10-31T07:13:12.156Z,3.93
2022-10-31T07:15:41.942Z,4.10
2022-10-31T07:18:11.960Z,3.73
2022-10-31T07:20:40.047Z,3.80
2022-10-31T07:23:10.492Z,3.40
2022-10-31T07:25:38.403Z,3.50
2022-10-31T07:28:06.507Z,3.17
2022-10-31T07:30:34.569Z,3.53
2022-10-31T07:33:02.668Z,3.23
2022-10-31T07:35:31.254Z,4.00
2022-10-31T07:37:59.641Z,3.27
2022-10-31T07:40:29.047Z,6.27
2022-10-31T07:42:56.872Z,4.00
2022-10-31T07:45:24.694Z,3.30
2022-10-31T07:47:53.790Z,2.97
2022-10-31T07:50:24.083Z,3.23
2022-10-31T07:53:00.686Z,3.20
2022-10-31T07:55:31.212Z,3.30
2022-10-31T07:58:01.017Z,3.60
2022-10-31T08:00:29.276Z,2.80
2022-10-31T08:03:01.272Z,3.23
2022-10-31T08:05:29.628Z,3.00
2022-10-31T08:07:58.887Z,3.17
2022-10-31T08:10:29.239Z,3.10
2022-10-31T08:12:58.663Z,3.43
2022-10-31T08:15:27.268Z,3.40
2022-10-31T08:17:55.419Z,3.10
2022-10-31T08:20:23.812Z,2.60
2022-10-31T08:22:59.255Z,3.40
2022-10-31T08:25:32.314Z,3.10
2022-10-31T08:28:03.864Z,3.10
2022-10-31T08:30:34.566Z,3.30
2022-10-31T08:33:05.290Z,3.50
2022-10-31T08:35:33.987Z,3.00
2022-10-31T08:38:03.020Z,7.97
2022-10-31T08:40:34.413Z,5.00
2022-10-31T08:43:04.156Z,3.50
2022-10-31T08:45:33.888Z,4.50
2022-10-31T08:48:03.437Z,3.63
2022-10-31T08:50:34.003Z,3.50
2022-10-31T08:53:05.672Z,3.50
2022-10-31T08:55:36.595Z,2.90
2022-10-31T08:58:06.218Z,3.43
2022-10-31T09:00:34.730Z,3.20
2022-10-31T09:03:05.663Z,4.00
2022-10-31T09:05:34.425Z,4.33
2022-10-31T09:08:04.135Z,3.63
2022-10-31T09:10:33.264Z,3.60
2022-10-31T09:13:05.139Z,3.10
2022-10-31T09:15:33.019Z,3.70
2022-10-31T09:18:01.844Z,3.60
2022-10-31T09:20:30.166Z,3.70
2022-10-31T09:22:58.909Z,4.37
2022-10-31T09:25:27.075Z,3.80
2022-10-31T09:27:59.355Z,3.43
2022-10-31T09:30:30.952Z,3.40
2022-10-31T09:32:59.854Z,3.13
2022-10-31T09:35:28.500Z,3.33
2022-10-31T09:37:57.138Z,3.27
2022-10-31T09:40:29.628Z,3.27
2022-10-31T09:43:05.979Z,3.43
2022-10-31T09:45:41.700Z,3.37
2022-10-31T09:48:28.759Z,3.07
2022-10-31T09:51:00.619Z,3.93
2022-10-31T09:53:37.017Z,3.23
2022-10-31T09:56:08.440Z,3.50
2022-10-31T09:58:43.563Z,3.20
2022-10-31T10:01:25.519Z,3.67
2022-10-31T10:03:57.653Z,3.10
2022-10-31T10:06:29.387Z,3.93
2022-10-31T10:08:58.177Z,3.23
2022-10-31T10:11:44.648Z,3.27
2022-10-31T10:14:34.422Z,3.30
2022-10-31T10:17:27.886Z,3.27
2022-10-31T10:20:11.562Z,10.23
2022-10-31T10:22:45.324Z,4.73
2022-10-31T10:25:25.215Z,3.37
2022-10-31T10:28:05.016Z,3.00
2022-10-31T10:30:41.227Z,3.37
2022-10-31T10:33:16.320Z,3.40
2022-10-31T10:35:48.163Z,2.93
2022-10-31T10:38:25.788Z,3.63
2022-10-31T10:40:54.959Z,9.43
2022-10-31T10:43:26.729Z,5.57
2022-10-31T10:46:32.585Z,4.37
2022-10-31T10:49:11.400Z,3.60
2022-10-31T10:51:58.237Z,3.30
2022-10-31T10:54:44.621Z,3.47
2022-10-31T10:57:24.334Z,3.20
2022-10-31T10:59:53.510Z,3.57
2022-10-31T11:02:23.811Z,3.20
2022-10-31T11:04:55.982Z,3.40
2022-10-31T11:07:24.074Z,3.10
2022-10-31T11:09:51.934Z,3.47
2022-10-31T11:12:23.685Z,3.27
2022-10-31T11:14:56.794Z,3.10
2022-10-31T11:17:31.230Z,3.63
2022-10-31T11:20:06.549Z,3.67
2022-10-31T11:22:34.518Z,2.93
2022-10-31T11:25:02.436Z,3.60
2022-10-31T11:27:30.366Z,3.10
2022-10-31T11:30:07.414Z,3.40
2022-10-31T11:32:35.532Z,3.63
2022-10-31T11:35:11.349Z,3.90
2022-10-31T11:37:44.903Z,3.03
2022-10-31T11:40:19.525Z,3.93
2022-10-31T11:42:47.945Z,3.67
2022-10-31T11:45:18.008Z,3.80
2022-10-31T11:47:49.615Z,4.00
2022-10-31T11:50:22.224Z,4.20
2022-10-31T11:52:51.147Z,4.03
2022-10-31T11:55:33.433Z,4.17
2022-10-31T11:58:01.953Z,3.63
2022-10-31T12:00:32.140Z,3.60
2022-10-31T12:03:17.446Z,3.80
2022-10-31T12:05:49.308Z,3.70
2022-10-31T12:08:17.265Z,3.87
2022-10-31T12:10:51.334Z,3.27
2022-10-31T12:13:34.644Z,3.80
2022-10-31T12:16:09.870Z,4.30
2022-10-31T12:18:50.010Z,4.17
2022-10-31T12:21:45.774Z,3.83
2022-10-31T12:24:26.130Z,3.67
2022-10-31T12:27:03.497Z,3.53
2022-10-31T12:29:50.128Z,3.67
2022-10-31T12:32:31.629Z,4.00
2022-10-31T12:35:35.173Z,4.03
2022-10-31T12:38:21.737Z,4.00
2022-10-31T12:41:14.836Z,12.80
2022-10-31T12:43:48.672Z,5.63
2022-10-31T12:46:26.736Z,4.10
2022-10-31T12:49:41.004Z,4.37
2022-10-31T12:52:24.873Z,3.67
2022-10-31T12:55:16.348Z,3.80
2022-10-31T12:57:47.592Z,3.27
2022-10-31T13:00:17.871Z,3.47
2022-10-31T13:02:53.578Z,3.63
2022-10-31T13:05:28.397Z,3.50
2022-10-31T13:08:00.117Z,3.30
2022-10-31T13:10:34.507Z,3.70
2022-10-31T13:13:10.040Z,3.90
2022-10-31T13:15:50.411Z,3.20
2022-10-31T13:18:27.263Z,3.20
2022-10-31T13:20:56.703Z,3.10
2022-10-31T13:23:49.790Z,3.53
2022-10-31T13:26:25.946Z,3.07
2022-10-31T13:29:01.629Z,3.53
2022-10-31T13:31:29.748Z,2.87
2022-10-31T13:34:03.241Z,8.77
2022-10-31T13:36:35.945Z,7.50
2022-10-31T13:39:15.968Z,4.73
2022-10-31T13:41:50.531Z,3.63
2022-10-31T13:44:22.877Z,3.83
2022-10-31T13:46:51.182Z,3.20
2022-10-31T13:49:40.112Z,3.60
2022-10-31T13:52:16.085Z,3.33
2022-10-31T13:54:45.730Z,3.70
2022-10-31T13:57:29.026Z,2.97
2022-10-31T14:00:03.401Z,3.43
2022-10-31T14:02:33.704Z,3.63
2022-10-31T14:05:03.628Z,3.13
2022-10-31T14:07:32.431Z,3.63
2022-10-31T14:10:05.663Z,3.80
2022-10-31T14:12:40.744Z,3.97
2022-10-31T14:15:17.393Z,3.97
2022-10-31T14:17:49.809Z,3.77
2022-10-31T14:20:33.139Z,4.27
2022-10-31T14:23:01.306Z,7.73
2022-10-31T14:25:33.208Z,4.33
2022-10-31T14:28:04.815Z,4.53
2022-10-31T14:30:33.313Z,4.10
2022-10-31T14:33:04.105Z,4.70
2022-10-31T14:35:50.950Z,4.17
2022-10-31T14:38:56.846Z,4.50
2022-10-31T14:41:39.758Z,3.97
2022-10-31T14:44:37.879Z,3.93
2022-10-31T14:47:17.383Z,3.53
2022-10-31T14:50:05.150Z,3.77
2022-10-31T14:52:33.740Z,3.40
2022-10-31T14:55:02.710Z,3.63
2022-10-31T14:57:34.462Z,3.27
2022-10-31T15:00:07.024Z,4.00
2022-10-31T15:02:45.828Z,3.77
2022-10-31T15:05:16.088Z,3.70
2022-10-31T15:07:51.330Z,3.60
2022-10-31T15:10:24.144Z,3.90
2022-10-31T15:12:52.301Z,4.43
2022-10-31T15:15:24.499Z,3.33
2022-10-31T15:17:55.257Z,2.90
2022-10-31T15:20:27.132Z,3.30
2022-10-31T15:22:58.355Z,3.30
2022-10-31T15:25:29.685Z,4.07
2022-10-31T15:27:57.567Z,3.50
2022-10-31T15:30:28.927Z,4.10
2022-10-31T15:32:59.176Z,3.73
2022-10-31T15:35:30.577Z,3.57
2022-10-31T15:38:00.160Z,3.87
2022-10-31T15:40:29.221Z,4.17
2022-10-31T15:42:59.692Z,4.30
2022-10-31T15:45:31.417Z,3.67
2022-10-31T15:48:03.297Z,3.60
2022-10-31T15:50:34.747Z,3.50
2022-10-31T15:53:03.751Z,3.20
2022-10-31T15:55:35.372Z,3.30
2022-10-31T15:58:05.747Z,3.83
2022-10-31T16:00:36.851Z,4.17
2022-10-31T16:03:06.823Z,3.40
2022-10-31T16:05:38.451Z,3.67
2022-10-31T16:08:22.796Z,3.67
2022-10-31T16:10:50.771Z,3.80
2022-10-31T16:13:19.106Z,4.07
2022-10-31T16:16:21.298Z,3.93
2022-10-31T16:18:45.268Z,3.87
2022-10-31T16:21:13.679Z,4.20
2022-10-31T16:23:48.115Z,4.00
2022-10-31T16:26:20.982Z,3.70
2022-10-31T16:29:02.677Z,3.20
2022-10-31T16:31:39.119Z,3.80
2022-10-31T16:34:23.716Z,3.53
2022-10-31T16:36:54.098Z,3.33
2022-10-31T16:39:22.279Z,3.70
2022-10-31T16:41:53.515Z,3.77
2022-10-31T16:44:24.584Z,3.87
2022-10-31T16:47:11.090Z,4.10
2022-10-31T16:49:39.101Z,6.13
2022-10-31T16:52:07.051Z,3.80
2022-10-31T16:54:35.018Z,3.40
2022-10-31T16:57:05.692Z,3.80
2022-10-31T16:59:34.736Z,3.60
2022-10-31T17:02:06.209Z,3.37
2022-10-31T17:07:09.142Z,3.80
2022-10-31T17:09:37.001Z,4.20
2022-10-31T17:12:06.252Z,4.13
2022-10-31T17:14:35.705Z,4.50
2022-10-31T17:17:05.189Z,4.30
2022-10-31T17:19:34.869Z,5.07
2022-10-31T17:22:03.877Z,3.70
2022-10-31T17:24:31.730Z,4.13
2022-10-31T17:26:59.631Z,5.70
2022-10-31T17:29:27.477Z,4.23
2022-10-31T17:31:55.668Z,4.23
2022-10-31T17:34:24.892Z,3.90
2022-10-31T17:36:53.941Z,6.03
2022-10-31T17:39:22.014Z,7.33
2022-10-31T17:41:52.443Z,4.70
2022-10-31T17:44:20.655Z,4.10
2022-10-31T17:46:48.533Z,3.83
2022-10-31T17:49:16.594Z,4.37
2022-10-31T17:51:45.880Z,4.43
2022-10-31T17:54:13.845Z,3.90
2022-10-31T17:56:41.809Z,4.00
2022-10-31T17:59:09.750Z,5.07
2022-10-31T18:01:37.721Z,5.60
2022-10-31T18:04:05.839Z,5.03
2022-10-31T18:06:33.706Z,4.90
2022-10-31T18:09:05.921Z,5.17
2022-10-31T18:11:34.108Z,5.00
2022-10-31T18:14:01.993Z,5.10
2022-10-31T18:16:29.867Z,5.13
2022-10-31T18:19:01.706Z,4.90
2022-10-31T18:21:30.011Z,5.77
2022-10-31T18:23:58.513Z,4.97
2022-10-31T18:26:28.977Z,6.77
2022-10-31T18:28:56.974Z,5.23
2022-10-31T18:31:24.924Z,5.40
2022-10-31T18:33:54.278Z,5.70
2022-10-31T18:36:22.395Z,4.40
2022-10-31T18:38:50.275Z,4.80
2022-10-31T18:41:18.286Z,5.43
2022-10-31T18:43:47.668Z,5.23
2022-10-31T18:46:17.842Z,5.30
2022-10-31T18:48:46.455Z,5.93
2022-10-31T18:51:18.024Z,5.43
2022-10-31T18:53:51.912Z,9.60
2022-10-31T18:56:20.253Z,16.10
2022-10-31T18:58:49.499Z,7.17
2022-10-31T19:01:19.073Z,6.00
2022-10-31T19:03:47.234Z,6.20
2022-10-31T19:06:15.138Z,5.93
2022-10-31T19:08:43.009Z,6.23
2022-10-31T19:11:12.857Z,5.37
2022-10-31T19:13:41.729Z,6.13
2022-10-31T19:16:12.791Z,6.10
2022-10-31T19:18:41.628Z,6.77
2022-10-31T19:21:11.471Z,21.87
2022-10-31T19:23:40.025Z,28.80
2022-10-31T19:26:08.509Z,9.07
2022-10-31T19:28:38.169Z,5.90
2022-10-31T19:31:06.749Z,7.50
2022-10-31T19:33:36.669Z,7.50
2022-10-31T19:36:09.555Z,8.17
2022-10-31T19:38:38.670Z,8.30
2022-10-31T19:41:08.642Z,7.70
2022-10-31T19:43:36.507Z,7.93
2022-10-31T19:46:05.855Z,7.73
2022-10-31T19:48:38.601Z,7.70
2022-10-31T19:51:10.178Z,8.43
2022-10-31T19:53:39.083Z,8.60
2022-10-31T19:56:12.392Z,8.23
2022-10-31T19:58:40.744Z,8.70
2022-10-31T20:01:09.800Z,8.97
2022-10-31T20:03:40.084Z,9.00
2022-10-31T20:06:08.720Z,8.60
2022-10-31T20:08:39.460Z,7.73
2022-10-31T20:11:08.033Z,7.67
2022-10-31T20:13:35.876Z,7.83
2022-10-31T20:16:06.527Z,9.53
2022-10-31T20:18:35.191Z,7.63
2022-10-31T20:21:06.000Z,7.67
2022-10-31T20:23:34.430Z,7.20
2022-10-31T20:26:02.802Z,6.90
2022-10-31T20:28:32.167Z,7.33
2022-10-31T20:31:00.443Z,6.47
2022-10-31T20:33:28.386Z,6.80
2022-10-31T20:35:56.235Z,6.93
2022-10-31T20:38:25.470Z,6.87
2022-10-31T20:40:53.347Z,6.43
2022-10-31T20:43:21.197Z,6.37
2022-10-31T20:45:49.040Z,6.47
2022-10-31T20:48:16.892Z,6.97
2022-10-31T20:50:44.719Z,6.33
2022-10-31T20:53:12.621Z,6.40
2022-10-31T20:55:41.862Z,7.10
2022-10-31T20:58:09.802Z,7.43
2022-10-31T21:00:38.500Z,8.00
2022-10-31T21:03:06.360Z,7.03
2022-10-31T21:05:34.217Z,7.27
2022-10-31T21:08:02.094Z,7.37
2022-10-31T21:10:29.947Z,7.00
2022-10-31T21:12:59.474Z,7.47
2022-10-31T21:15:27.568Z,8.27
2022-10-31T21:17:56.019Z,9.70
2022-10-31T21:20:23.922Z,7.43
2022-10-31T21:22:51.763Z,7.40
2022-10-31T21:25:19.631Z,6.63
2022-10-31T21:27:47.555Z,7.60
2022-10-31T21:30:16.783Z,8.37
2022-10-31T21:32:44.665Z,7.07
2022-10-31T21:35:12.505Z,7.00
2022-10-31T21:37:40.371Z,7.13
2022-10-31T21:40:09.417Z,9.30
2022-10-31T21:42:37.255Z,9.17
2022-10-31T21:45:05.706Z,7.77
2022-10-31T21:47:34.953Z,9.80
2022-10-31T21:50:02.822Z,7.70
2022-10-31T21:52:30.664Z,7.37
2022-10-31T21:54:57.536Z,6.33
2022-10-31T21:57:25.504Z,6.97
2022-10-31T21:59:53.380Z,6.80
2022-10-31T22:02:21.239Z,7.63
2022-10-31T22:04:51.371Z,10.43
2022-10-31T22:07:19.730Z,9.53
2022-10-31T22:09:48.087Z,8.80
2022-10-31T22:12:16.048Z,8.20
2022-10-31T22:14:43.970Z,6.37
2022-10-31T22:17:11.859Z,5.87
2022-10-31T22:19:39.742Z,6.10
2022-10-31T22:22:08.935Z,6.33
2022-10-31T22:24:36.804Z,7.23
2022-10-31T22:27:04.723Z,8.20
2022-10-31T22:29:32.623Z,9.00
2022-10-31T22:32:01.960Z,9.27
2022-10-31T22:34:30.132Z,8.20
2022-10-31T22:36:57.981Z,7.30
2022-10-31T22:39:27.200Z,6.63
2022-10-31T22:41:55.024Z,6.67
2022-10-31T22:44:22.886Z,6.10
2022-10-31T22:46:50.781Z,6.53
2022-10-31T22:49:18.713Z,6.57
2022-10-31T22:51:46.655Z,6.73
2022-10-31T22:54:16.227Z,7.27
2022-10-31T22:56:46.380Z,7.47
2022-10-31T22:59:15.920Z,6.87
2022-10-31T23:01:45.631Z,7.67
2022-10-31T23:04:14.423Z,7.20
2022-10-31T23:06:42.335Z,7.30
2022-10-31T23:09:14.129Z,7.07
2022-10-31T23:11:42.273Z,6.50
2022-10-31T23:14:14.326Z,6.87
2022-10-31T23:16:44.594Z,6.93
2022-10-31T23:19:14.937Z,6.43
2022-10-31T23:21:54.352Z,5.93
2022-10-31T23:24:27.951Z,6.27
2022-10-31T23:27:06.366Z,5.70
2022-10-31T23:29:37.429Z,6.40
2022-10-31T23:32:06.680Z,5.77
2022-10-31T23:34:34.620Z,6.20
2022-10-31T23:37:02.561Z,5.90
2022-10-31T23:39:30.493Z,6.00
2022-10-31T23:41:58.348Z,5.47
2022-10-31T23:44:26.254Z,5.80
2022-10-31T23:46:55.465Z,5.67
2022-10-31T23:49:23.336Z,5.90
2022-10-31T23:51:51.423Z,5.90
2022-10-31T23:54:19.405Z,6.03
2022-10-31T23:56:47.305Z,6.03
2022-10-31T23:59:15.175Z,5.67
